createdAt,value
2017-06-12T00:00:55.038Z,100563.74
2017-06-12T00:03:21.364Z,100563.05
2017-06-12T00:05:47.788Z,100566.22
2017-06-12T00:08:14.138Z,100569.27
2017-06-12T00:10:40.509Z,100556.81
2017-06-12T00:13:06.838Z,100553.35
2017-06-12T00:15:33.175Z,100559.97
2017-06-12T00:17:59.508Z,100564.97
2017-06-12T00:20:25.826Z,100560.84
2017-06-12T00:22:52.166Z,100564.78
2017-06-12T00:25:18.522Z,100567.83
2017-06-12T00:27:44.933Z,100556.22
2017-06-12T00:30:11.285Z,100556.54
2017-06-12T00:32:37.608Z,100567.73
2017-06-12T00:35:03.939Z,100567.36
2017-06-12T00:37:30.382Z,100569.42
2017-06-12T00:39:56.706Z,100565.47
2017-06-12T00:42:23.046Z,100570.50
2017-06-12T00:44:49.372Z,100563.67
2017-06-12T00:47:15.717Z,100568.27
2017-06-12T00:49:42.034Z,100571.72
2017-06-12T00:52:08.377Z,100570.83
2017-06-12T00:54:34.721Z,100576.17
2017-06-12T00:57:01.123Z,100579.06
2017-06-12T00:59:27.474Z,100584.38
2017-06-12T01:01:53.804Z,100586.28
2017-06-12T01:04:20.118Z,100588.19
2017-06-12T01:06:46.505Z,100584.96
2017-06-12T01:09:12.868Z,100584.89
2017-06-12T01:11:39.201Z,100582.20
2017-06-12T01:14:05.534Z,100579.86
2017-06-12T01:16:31.907Z,100579.47
2017-06-12T01:18:58.258Z,100583.95
2017-06-12T01:21:24.650Z,100569.86
2017-06-12T01:23:50.992Z,100563.48
2017-06-12T01:26:17.325Z,100571.58
2017-06-12T01:28:43.687Z,100578.73
2017-06-12T01:31:10.048Z,100588.27
2017-06-12T01:33:36.408Z,100592.58
2017-06-12T01:36:02.741Z,100589.91
2017-06-12T01:38:29.082Z,100597.23
2017-06-12T01:40:55.442Z,100590.81
2017-06-12T01:43:21.870Z,100593.08
2017-06-12T01:45:48.248Z,100588.27
2017-06-12T01:48:14.631Z,100590.00
2017-06-12T01:50:40.999Z,100588.93
2017-06-12T01:53:07.340Z,100595.22
2017-06-12T01:55:33.686Z,100594.54
2017-06-12T01:58:00.041Z,100599.08
2017-06-12T02:00:26.386Z,100600.49
2017-06-12T02:02:52.757Z,100595.95
2017-06-12T02:05:19.172Z,100589.96
2017-06-12T02:07:45.520Z,100596.42
2017-06-12T02:10:11.841Z,100597.65
2017-06-12T02:12:38.145Z,100606.69
2017-06-12T02:15:04.463Z,100606.34
2017-06-12T02:17:30.789Z,100604.31
2017-06-12T02:19:57.121Z,100600.47
2017-06-12T02:22:23.558Z,100608.34
2017-06-12T02:24:49.922Z,100602.95
2017-06-12T02:27:16.254Z,100611.64
2017-06-12T02:29:42.583Z,100609.45
2017-06-12T02:32:08.910Z,100605.83
2017-06-12T02:34:35.240Z,100611.21
2017-06-12T02:37:01.610Z,100611.06
2017-06-12T02:39:27.944Z,100615.08
2017-06-12T02:41:54.296Z,100613.24
2017-06-12T02:44:20.646Z,100623.55
2017-06-12T02:46:46.962Z,100624.13
2017-06-12T02:49:13.329Z,100618.42
2017-06-12T02:51:39.673Z,100619.52
2017-06-12T02:54:06.019Z,100627.50
2017-06-12T02:56:32.326Z,100634.79
2017-06-12T02:58:58.735Z,100634.27
2017-06-12T03:01:25.064Z,100629.52
2017-06-12T03:03:51.396Z,100625.70
2017-06-12T03:06:17.721Z,100619.30
2017-06-12T03:08:44.076Z,100625.66
2017-06-12T03:11:10.451Z,100630.58
2017-06-12T03:13:36.848Z,100629.63
2017-06-12T03:16:03.178Z,100624.69
2017-06-12T03:18:29.543Z,100626.31
2017-06-12T03:20:55.886Z,100630.66
2017-06-12T03:23:22.229Z,100632.50
2017-06-12T03:25:48.567Z,100628.77
2017-06-12T03:28:14.910Z,100632.59
2017-06-12T03:30:41.249Z,100638.85
2017-06-12T03:33:07.561Z,100643.70
2017-06-12T03:35:34.297Z,100647.23
2017-06-12T03:38:00.637Z,100646.13
2017-06-12T03:40:26.958Z,100650.00
2017-06-12T03:42:53.308Z,100656.17
2017-06-12T03:45:19.676Z,100662.15
2017-06-12T03:47:46.010Z,100661.61
2017-06-12T03:50:12.323Z,100674.27
2017-06-12T03:52:38.654Z,100677.01
2017-06-12T03:55:05.018Z,100682.56
2017-06-12T03:57:31.357Z,100679.73
2017-06-12T03:59:57.706Z,100671.77
2017-06-12T04:02:24.048Z,100668.16
2017-06-12T04:04:50.493Z,100673.45
2017-06-12T04:07:16.808Z,100670.31
2017-06-12T04:09:43.153Z,100668.02
2017-06-12T04:12:09.479Z,100675.27
2017-06-12T04:14:35.942Z,100681.98
2017-06-12T04:17:02.285Z,100677.96
2017-06-12T04:19:28.603Z,100680.77
2017-06-12T04:21:54.915Z,100679.41
2017-06-12T04:24:21.234Z,100680.12
2017-06-12T04:26:47.553Z,100674.11
2017-06-12T04:29:13.876Z,100681.06
2017-06-12T04:31:40.218Z,100686.25
2017-06-12T04:34:06.544Z,100696.20
2017-06-12T04:36:32.879Z,100697.67
2017-06-12T04:38:59.213Z,100697.20
2017-06-12T04:41:25.541Z,100692.04
2017-06-12T04:43:51.859Z,100687.34
2017-06-12T04:46:18.183Z,100690.42
2017-06-12T04:48:44.509Z,100684.45
2017-06-12T04:51:10.894Z,100684.52
2017-06-12T04:53:37.233Z,100689.70
2017-06-12T04:56:03.569Z,100679.91
2017-06-12T04:58:29.878Z,100687.13
2017-06-12T05:00:56.262Z,100689.74
2017-06-12T05:03:22.621Z,100685.61
2017-06-12T05:05:48.940Z,100692.17
2017-06-12T05:08:15.271Z,100688.42
2017-06-12T05:10:41.691Z,100691.16
2017-06-12T05:13:08.017Z,100685.91
2017-06-12T05:15:34.349Z,100695.96
2017-06-12T05:18:00.673Z,100694.56
2017-06-12T05:20:27.074Z,100703.41
2017-06-12T05:22:53.389Z,100695.02
2017-06-12T05:25:19.727Z,100697.30
2017-06-12T05:27:46.062Z,100702.06
2017-06-12T05:30:12.467Z,100705.53
2017-06-12T05:32:38.808Z,100701.64
2017-06-12T05:35:05.116Z,100714.06
2017-06-12T05:37:31.434Z,100728.76
2017-06-12T05:39:57.761Z,100728.76
2017-06-12T05:42:24.084Z,100721.68
2017-06-12T05:44:50.416Z,100722.22
2017-06-12T05:47:16.730Z,100722.21
2017-06-12T05:49:43.080Z,100732.38
2017-06-12T05:52:09.459Z,100731.52
2017-06-12T05:54:35.817Z,100724.93
2017-06-12T05:57:02.220Z,100730.64
2017-06-12T05:59:28.569Z,100741.59
2017-06-12T06:01:54.920Z,100743.48
2017-06-12T06:04:21.250Z,100729.20
2017-06-12T06:06:47.679Z,100736.61
2017-06-12T06:09:13.998Z,100740.55
2017-06-12T06:11:40.364Z,100737.73
2017-06-12T06:14:06.716Z,100740.41
2017-06-12T06:16:33.122Z,100735.22
2017-06-12T06:18:59.455Z,100745.22
2017-06-12T06:21:25.805Z,100731.84
2017-06-12T06:23:52.122Z,100736.81
2017-06-12T06:26:18.442Z,100732.39
2017-06-12T06:28:44.767Z,100734.66
2017-06-12T06:31:11.099Z,100739.75
2017-06-12T06:33:37.482Z,100742.69
2017-06-12T06:36:03.929Z,100751.75
2017-06-12T06:38:30.275Z,100749.63
2017-06-12T06:40:56.585Z,100750.88
2017-06-12T06:43:22.948Z,100741.87
2017-06-12T06:45:49.413Z,100743.82
2017-06-12T06:48:15.739Z,100748.21
2017-06-12T06:50:42.072Z,100748.89
2017-06-12T06:53:08.387Z,100750.20
2017-06-12T06:55:34.739Z,100761.15
2017-06-12T06:58:01.047Z,100747.77
2017-06-12T07:00:27.405Z,100751.03
2017-06-12T07:02:53.742Z,100760.42
2017-06-12T07:05:20.085Z,100755.87
2017-06-12T07:07:46.454Z,100745.89
2017-06-12T07:10:12.776Z,100746.67
2017-06-12T07:12:39.109Z,100759.59
2017-06-12T07:15:05.425Z,100749.63
2017-06-12T07:17:31.791Z,100754.98
2017-06-12T07:19:58.116Z,100758.83
2017-06-12T07:22:24.471Z,100762.12
2017-06-12T07:24:50.844Z,100764.53
2017-06-12T07:27:17.184Z,100759.49
2017-06-12T07:29:43.501Z,100758.85
2017-06-12T07:32:09.838Z,100755.89
2017-06-12T07:34:36.189Z,100758.00
2017-06-12T07:37:02.502Z,100769.30
2017-06-12T07:39:28.836Z,100762.87
2017-06-12T07:41:55.141Z,100768.63
2017-06-12T07:44:21.476Z,100766.45
2017-06-12T07:46:47.802Z,100755.52
2017-06-12T07:49:14.141Z,100758.86
2017-06-12T07:51:40.471Z,100758.58
2017-06-12T07:54:06.874Z,100768.16
2017-06-12T07:56:33.253Z,100769.42
2017-06-12T07:58:59.604Z,100776.72
2017-06-12T08:01:25.938Z,100777.17
2017-06-12T08:03:52.290Z,100781.36
2017-06-12T08:06:18.670Z,100776.53
2017-06-12T08:08:45.011Z,100778.20
2017-06-12T08:11:11.325Z,100772.20
2017-06-12T08:13:37.647Z,100785.45
2017-06-12T08:16:04.848Z,100782.11
2017-06-12T08:18:31.188Z,100787.73
2017-06-12T08:20:57.543Z,100790.16
2017-06-12T08:23:23.870Z,100790.45
2017-06-12T08:25:50.192Z,100792.60
2017-06-12T08:28:16.519Z,100795.25
2017-06-12T08:30:42.850Z,100781.78
2017-06-12T08:33:09.182Z,100789.30
2017-06-12T08:35:35.502Z,100787.96
2017-06-12T08:38:01.870Z,100789.08
2017-06-12T08:40:28.218Z,100796.38
2017-06-12T08:42:54.543Z,100790.30
2017-06-12T08:45:20.886Z,100794.70
2017-06-12T08:47:47.222Z,100802.52
2017-06-12T08:50:13.572Z,100802.74
2017-06-12T08:52:39.937Z,100801.81
2017-06-12T08:55:06.258Z,100809.54
2017-06-12T08:57:32.579Z,100811.23
2017-06-12T08:59:58.961Z,100808.39
2017-06-12T09:02:25.322Z,100818.71
2017-06-12T09:04:51.653Z,100820.02
2017-06-12T09:07:18.017Z,100828.27
2017-06-12T09:09:44.364Z,100805.50
2017-06-12T09:12:10.703Z,100819.92
2017-06-12T09:14:37.055Z,100817.81
2017-06-12T09:17:03.420Z,100820.64
2017-06-12T09:19:29.765Z,100825.12
2017-06-12T09:21:56.094Z,100837.63
2017-06-12T09:24:22.440Z,100838.80
2017-06-12T09:26:48.795Z,100843.80
2017-06-12T09:29:15.144Z,100841.68
2017-06-12T09:31:41.491Z,100843.15
2017-06-12T09:34:07.831Z,100840.28
2017-06-12T09:36:34.160Z,100837.02
2017-06-12T09:39:00.527Z,100842.81
2017-06-12T09:41:26.889Z,100842.64
2017-06-12T09:43:53.326Z,100855.11
2017-06-12T09:46:19.674Z,100855.33
2017-06-12T09:48:46.011Z,100860.20
2017-06-12T09:51:12.346Z,100860.96
2017-06-12T09:53:38.671Z,100869.35
2017-06-12T09:56:04.972Z,100865.72
2017-06-12T09:58:31.351Z,100870.27
2017-06-12T10:00:57.675Z,100868.41
2017-06-12T10:03:24.007Z,100867.02
2017-06-12T10:05:50.345Z,100866.78
2017-06-12T10:08:16.675Z,100865.11
2017-06-12T10:10:42.995Z,100866.80
2017-06-12T10:13:09.330Z,100863.70
2017-06-12T10:15:35.668Z,100870.87
2017-06-12T10:18:02.044Z,100869.38
2017-06-12T10:20:28.372Z,100857.98
2017-06-12T10:22:54.720Z,100859.11
2017-06-12T10:25:21.045Z,100860.97
2017-06-12T10:27:47.359Z,100860.59
2017-06-12T10:30:13.722Z,100869.67
2017-06-12T10:32:40.056Z,100871.28
2017-06-12T10:35:06.416Z,100867.19
2017-06-12T10:37:32.734Z,100857.53
2017-06-12T10:39:59.070Z,100860.00
2017-06-12T10:42:25.459Z,100874.05
2017-06-12T10:44:51.850Z,100873.23
2017-06-12T10:47:18.174Z,100877.66
2017-06-12T10:49:44.495Z,100871.88
2017-06-12T10:52:10.859Z,100874.45
2017-06-12T10:54:37.213Z,100870.98
2017-06-12T10:57:03.556Z,100863.34
2017-06-12T10:59:29.925Z,100868.56
2017-06-12T11:01:56.292Z,100880.89
2017-06-12T11:04:22.662Z,100877.08
2017-06-12T11:06:49.007Z,100880.09
2017-06-12T11:09:15.357Z,100881.05
2017-06-12T11:11:41.688Z,100881.97
2017-06-12T11:14:08.034Z,100880.20
2017-06-12T11:16:34.397Z,100882.36
2017-06-12T11:19:00.734Z,100883.84
2017-06-12T11:21:27.151Z,100890.49
2017-06-12T11:23:53.538Z,100891.06
2017-06-12T11:26:19.945Z,100879.48
2017-06-12T11:28:46.315Z,100886.52
2017-06-12T11:31:12.681Z,100893.67
2017-06-12T11:33:39.006Z,100887.25
2017-06-12T11:36:05.323Z,100897.73
2017-06-12T11:38:31.663Z,100887.56
2017-06-12T11:40:57.981Z,100894.45
2017-06-12T11:43:24.397Z,100892.48
2017-06-12T11:45:50.780Z,100893.74
2017-06-12T11:48:17.099Z,100889.96
2017-06-12T11:50:43.458Z,100898.20
2017-06-12T11:53:11.368Z,100900.18
2017-06-12T11:55:37.707Z,100890.86
2017-06-12T11:58:04.066Z,100886.31
2017-06-12T12:00:30.420Z,100891.11
2017-06-12T12:02:56.749Z,100897.62
2017-06-12T12:05:23.123Z,100891.55
2017-06-12T12:07:49.470Z,100893.88
2017-06-12T12:10:15.893Z,100890.22
2017-06-12T12:12:42.271Z,100903.42
2017-06-12T12:15:08.637Z,100895.66
2017-06-12T12:17:34.968Z,100899.72
2017-06-12T12:20:01.346Z,100898.45
2017-06-12T12:22:27.690Z,100899.88
2017-06-12T12:24:54.073Z,100906.77
2017-06-12T12:27:20.418Z,100913.77
2017-06-12T12:29:46.776Z,100909.03
2017-06-12T12:32:13.095Z,100914.95
2017-06-12T12:34:39.422Z,100909.39
2017-06-12T12:37:05.758Z,100918.73
2017-06-12T12:39:32.110Z,100917.47
2017-06-12T12:41:58.461Z,100919.69
2017-06-12T12:44:24.813Z,100907.41
2017-06-12T12:46:51.181Z,100920.41
2017-06-12T12:49:17.541Z,100918.52
2017-06-12T12:51:43.893Z,100913.95
2017-06-12T12:54:10.240Z,100912.09
2017-06-12T12:56:36.624Z,100910.31
2017-06-12T12:59:02.969Z,100924.20
2017-06-12T13:01:29.308Z,100931.58
2017-06-12T13:03:55.643Z,100933.50
2017-06-12T13:06:21.978Z,100944.91
2017-06-12T13:08:48.314Z,100943.53
2017-06-12T13:11:14.657Z,100939.83
2017-06-12T13:13:40.987Z,100946.32
2017-06-12T13:16:07.371Z,100948.41
2017-06-12T13:18:33.720Z,100940.97
2017-06-12T13:21:00.069Z,100943.22
2017-06-12T13:23:26.409Z,100947.38
2017-06-12T13:25:52.776Z,100951.60
2017-06-12T13:28:19.125Z,100944.48
2017-06-12T13:30:45.487Z,100956.20
2017-06-12T13:33:11.868Z,100954.34
2017-06-12T13:35:38.216Z,100952.21
2017-06-12T13:38:04.554Z,100962.20
2017-06-12T13:40:30.885Z,100966.06
2017-06-12T13:42:57.233Z,100967.72
2017-06-12T13:45:23.589Z,100957.87
2017-06-12T13:47:49.969Z,100955.87
2017-06-12T13:50:16.295Z,100950.62
2017-06-12T13:52:42.621Z,100945.07
2017-06-12T13:55:08.989Z,100947.61
2017-06-12T13:57:35.322Z,100956.06
2017-06-12T14:00:01.683Z,100965.48
2017-06-12T14:02:28.035Z,100959.75
2017-06-12T14:04:54.409Z,100957.20
2017-06-12T14:07:20.756Z,100953.64
2017-06-12T14:09:47.110Z,100949.77
2017-06-12T14:12:13.464Z,100948.75
2017-06-12T14:14:39.860Z,100945.48
2017-06-12T14:17:06.231Z,100945.06
2017-06-12T14:19:32.574Z,100946.64
2017-06-12T14:21:58.918Z,100954.80
2017-06-12T14:24:25.273Z,100957.31
2017-06-12T14:26:51.619Z,100951.30
2017-06-12T14:29:17.945Z,100951.26
2017-06-12T14:31:44.309Z,100955.44
2017-06-12T14:34:10.656Z,100960.43
2017-06-12T14:36:37.007Z,100958.18
2017-06-12T14:39:03.445Z,100959.19
2017-06-12T14:41:29.794Z,100969.72
2017-06-12T14:43:56.137Z,100958.84
2017-06-12T14:46:22.525Z,100967.80
2017-06-12T14:48:48.920Z,100972.83
2017-06-12T14:51:15.250Z,100970.80
2017-06-12T14:53:41.570Z,100965.14
2017-06-12T14:56:07.975Z,100970.46
2017-06-12T14:58:34.312Z,100983.49
2017-06-12T15:01:00.658Z,100974.25
2017-06-12T15:03:27.022Z,100971.84
2017-06-12T15:05:53.389Z,100980.07
2017-06-12T15:08:19.730Z,100984.02
2017-06-12T15:10:46.089Z,100985.61
2017-06-12T15:13:12.414Z,100992.69
2017-06-12T15:15:38.764Z,100981.71
2017-06-12T15:18:05.147Z,100987.96
2017-06-12T15:20:31.496Z,100984.53
2017-06-12T15:22:57.852Z,100987.87
2017-06-12T15:25:24.164Z,100987.52
2017-06-12T15:27:50.585Z,100992.08
2017-06-12T15:30:16.908Z,100989.37
2017-06-12T15:32:43.262Z,100983.17
2017-06-12T15:35:09.579Z,100983.49
2017-06-12T15:37:35.906Z,100980.94
2017-06-12T15:40:02.252Z,100981.48
2017-06-12T15:42:28.609Z,100985.19
2017-06-12T15:44:54.938Z,100983.38
2017-06-12T15:47:21.306Z,100977.70
2017-06-12T15:49:47.683Z,100982.45
2017-06-12T15:52:13.998Z,100982.02
2017-06-12T15:54:40.347Z,100984.58
2017-06-12T15:57:06.692Z,100981.68
2017-06-12T15:59:35.866Z,100978.81
2017-06-12T16:02:04.891Z,100987.02
2017-06-12T16:04:31.222Z,100975.64
2017-06-12T16:06:57.580Z,100977.27
2017-06-12T16:09:23.933Z,100978.75
2017-06-12T16:11:50.283Z,100975.47
2017-06-12T16:14:16.678Z,100972.81
2017-06-12T16:16:43.006Z,100972.95
2017-06-12T16:19:09.406Z,100973.19
2017-06-12T16:21:35.852Z,100973.41
2017-06-12T16:24:03.086Z,100962.91
2017-06-12T16:26:29.443Z,100969.73
2017-06-12T16:28:55.887Z,100971.20
2017-06-12T16:31:22.237Z,100968.17
2017-06-12T16:33:48.574Z,100959.16
2017-06-12T16:36:14.988Z,100961.84
2017-06-12T16:38:41.352Z,100953.92
2017-06-12T16:41:07.709Z,100956.20
2017-06-12T16:43:34.099Z,100954.56
2017-06-12T16:46:00.517Z,100959.95
2017-06-12T16:48:26.871Z,100955.64
2017-06-12T16:50:53.307Z,100950.53
2017-06-12T16:53:19.721Z,100949.42
2017-06-12T16:55:46.070Z,100951.95
2017-06-12T16:58:13.054Z,100949.27
2017-06-12T17:00:40.245Z,100955.50
2017-06-12T17:03:07.236Z,100958.08
2017-06-12T17:05:33.615Z,100965.38
2017-06-12T17:08:00.128Z,100964.48
2017-06-12T17:10:26.919Z,100957.47
2017-06-12T17:12:53.311Z,100967.19
2017-06-12T17:15:19.651Z,100962.86
2017-06-12T17:17:46.019Z,100961.75
2017-06-12T17:20:12.490Z,100961.53
2017-06-12T17:22:39.634Z,100957.91
2017-06-12T17:25:08.551Z,100961.76
2017-06-12T17:27:35.041Z,100964.03
2017-06-12T17:30:03.490Z,100958.08
2017-06-12T17:32:30.218Z,100963.07
2017-06-12T17:34:57.090Z,100958.89
2017-06-12T17:37:23.450Z,100968.44
2017-06-12T17:39:49.802Z,100966.53
2017-06-12T17:42:16.285Z,100974.91
2017-06-12T17:44:42.635Z,100976.35
2017-06-12T17:47:08.979Z,100974.69
2017-06-12T17:49:35.441Z,100976.19
2017-06-12T17:52:01.782Z,100983.44
2017-06-12T17:54:28.629Z,100982.94
2017-06-12T17:56:55.453Z,100986.60
2017-06-12T17:59:21.773Z,100993.13
2017-06-12T18:01:48.210Z,100979.48
2017-06-12T18:04:14.580Z,100985.31
2017-06-12T18:06:41.280Z,100981.69
2017-06-12T18:09:07.644Z,100986.51
2017-06-12T18:11:34.037Z,100994.25
2017-06-12T18:14:00.370Z,100996.43
2017-06-12T18:16:26.769Z,100997.53
2017-06-12T18:18:53.209Z,101004.38
2017-06-12T18:21:20.899Z,101002.39
2017-06-12T18:23:47.309Z,101006.34
2017-06-12T18:26:13.653Z,101006.37
2017-06-12T18:28:40.380Z,101006.39
2017-06-12T18:31:07.127Z,100998.98
2017-06-12T18:33:33.572Z,101012.59
2017-06-12T18:35:59.907Z,101010.28
2017-06-12T18:38:26.252Z,101001.35
2017-06-12T18:40:52.601Z,101012.91
2017-06-12T18:43:18.927Z,101018.52
2017-06-12T18:45:45.299Z,101009.93
2017-06-12T18:48:11.661Z,101012.42
2017-06-12T18:50:37.971Z,101012.08
2017-06-12T18:53:04.299Z,101013.20
2017-06-12T18:55:30.632Z,101009.45
2017-06-12T18:57:56.973Z,101012.19
2017-06-12T19:00:23.308Z,101015.43
2017-06-12T19:02:49.688Z,101012.83
2017-06-12T19:05:16.018Z,101017.84
2017-06-12T19:07:42.343Z,101018.27
2017-06-12T19:10:08.694Z,101019.59
2017-06-12T19:12:35.053Z,101012.06
2017-06-12T19:15:01.396Z,101013.84
2017-06-12T19:17:27.813Z,101020.95
2017-06-12T19:19:54.132Z,101025.22
2017-06-12T19:22:20.459Z,101022.95
2017-06-12T19:24:46.854Z,101021.77
2017-06-12T19:27:13.220Z,101024.05
2017-06-12T19:29:39.552Z,101022.22
2017-06-12T19:32:05.903Z,101033.94
2017-06-12T19:34:32.318Z,101024.33
2017-06-12T19:36:58.724Z,101023.94
2017-06-12T19:39:25.057Z,101023.80
2017-06-12T19:41:51.400Z,101024.80
2017-06-12T19:44:17.744Z,101024.32
2017-06-12T19:46:44.741Z,101028.03
2017-06-12T19:49:11.142Z,101026.61
2017-06-12T19:51:37.447Z,101026.30
2017-06-12T19:54:03.885Z,101031.82
2017-06-12T19:56:30.352Z,101033.61
2017-06-12T19:58:56.717Z,101031.78
2017-06-12T20:01:23.609Z,101042.62
2017-06-12T20:03:49.983Z,101040.52
2017-06-12T20:06:16.339Z,101046.28
2017-06-12T20:08:42.940Z,101040.97
2017-06-12T20:11:09.294Z,101047.59
2017-06-12T20:13:35.628Z,101045.97
2017-06-12T20:16:01.972Z,101044.69
2017-06-12T20:18:28.290Z,101040.31
2017-06-12T20:20:54.770Z,101048.73
2017-06-12T20:23:21.118Z,101055.69
2017-06-12T20:25:47.457Z,101059.06
2017-06-12T20:28:13.801Z,101053.15
2017-06-12T20:30:40.160Z,101054.61
2017-06-12T20:33:06.554Z,101057.73
2017-06-12T20:35:32.873Z,101056.91
2017-06-12T20:37:59.205Z,101061.45
2017-06-12T20:40:25.589Z,101058.48
2017-06-12T20:42:51.930Z,101051.53
2017-06-12T20:45:18.268Z,101049.25
2017-06-12T20:47:44.634Z,101048.58
2017-06-12T20:50:10.984Z,101050.91
2017-06-12T20:52:37.322Z,101054.80
2017-06-12T20:55:03.610Z,101055.18
2017-06-12T20:57:29.969Z,101054.27
2017-06-12T20:59:56.290Z,101058.11
2017-06-12T21:02:22.621Z,101058.19
2017-06-12T21:04:48.930Z,101055.56
2017-06-12T21:07:15.246Z,101062.80
2017-06-12T21:09:41.586Z,101061.59
2017-06-12T21:12:07.928Z,101059.92
2017-06-12T21:14:34.250Z,101069.75
2017-06-12T21:17:00.578Z,101066.92
2017-06-12T21:19:26.917Z,101066.15
2017-06-12T21:21:53.250Z,101068.73
2017-06-12T21:24:19.699Z,101075.84
2017-06-12T21:26:46.007Z,101073.57
2017-06-12T21:29:12.306Z,101076.80
2017-06-12T21:31:38.606Z,101073.95
2017-06-12T21:34:04.917Z,101076.33
2017-06-12T21:36:31.734Z,101076.61
2017-06-12T21:38:58.115Z,101075.46
2017-06-12T21:41:24.422Z,101073.24
2017-06-12T21:43:50.728Z,101066.09
2017-06-12T21:46:17.091Z,101068.13
2017-06-12T21:48:43.417Z,101068.63
2017-06-12T21:51:09.726Z,101069.73
2017-06-12T21:53:36.053Z,101074.50
2017-06-12T21:56:02.432Z,101069.73
2017-06-12T21:58:28.738Z,101075.39
2017-06-12T22:00:55.048Z,101073.06
2017-06-12T22:03:21.405Z,101081.08
2017-06-12T22:05:48.431Z,101077.84
2017-06-12T22:08:14.837Z,101078.50
2017-06-12T22:10:41.244Z,101077.03
2017-06-12T22:13:07.611Z,101075.04
2017-06-12T22:15:33.960Z,101063.34
2017-06-12T22:18:00.325Z,101066.58
2017-06-12T22:20:26.629Z,101070.41
2017-06-12T22:22:52.976Z,101074.13
2017-06-12T22:25:19.435Z,101072.66
2017-06-12T22:27:45.782Z,101075.50
2017-06-12T22:30:12.114Z,101073.05
2017-06-12T22:32:38.437Z,101076.66
2017-06-12T22:35:04.780Z,101075.03
2017-06-12T22:37:31.112Z,101071.41
2017-06-12T22:39:57.434Z,101072.93
2017-06-12T22:42:23.768Z,101074.28
2017-06-12T22:44:50.070Z,101074.00
2017-06-12T22:47:16.375Z,101069.25
2017-06-12T22:49:42.696Z,101069.38
2017-06-12T22:52:09.015Z,101072.87
2017-06-12T22:54:35.337Z,101082.05
2017-06-12T22:57:01.661Z,101076.39
2017-06-12T22:59:27.997Z,101072.77
2017-06-12T23:01:54.355Z,101078.22
2017-06-12T23:04:20.682Z,101068.58
2017-06-12T23:06:47.038Z,101069.41
2017-06-12T23:09:13.362Z,101069.81
2017-06-12T23:11:39.742Z,101058.72
2017-06-12T23:14:06.060Z,101065.67
2017-06-12T23:16:32.397Z,101066.05
2017-06-12T23:18:59.332Z,101068.17
2017-06-12T23:21:26.370Z,101069.94
2017-06-12T23:23:59.215Z,101071.63
2017-06-12T23:26:25.539Z,101058.93
2017-06-12T23:28:52.083Z,101062.39
2017-06-12T23:31:18.436Z,101052.11
2017-06-12T23:33:44.752Z,101057.45
2017-06-12T23:36:11.107Z,101055.52
2017-06-12T23:38:37.854Z,101058.72
2017-06-12T23:41:04.614Z,101056.73
2017-06-12T23:43:30.934Z,101056.05
2017-06-12T23:45:57.248Z,101057.21
2017-06-12T23:48:23.966Z,101057.91
2017-06-12T23:50:50.391Z,101052.29
2017-06-12T23:53:17.201Z,101057.16
2017-06-12T23:55:43.578Z,101053.02
2017-06-12T23:58:09.906Z,101055.83
